createdAt,value
2023-09-05T00:01:04.672Z,22.09
2023-09-05T00:03:37.923Z,22.07
2023-09-05T00:06:11.754Z,21.99
2023-09-05T00:08:44.358Z,22.30
2023-09-05T00:11:17.055Z,22.06
2023-09-05T00:13:55.395Z,22.10
2023-09-05T00:16:30.864Z,21.93
2023-09-05T00:19:03.720Z,21.95
2023-09-05T00:21:36.357Z,22.05
2023-09-05T00:24:39.030Z,22.08
2023-09-05T00:27:15.708Z,21.93
2023-09-05T00:29:48.410Z,21.92
2023-09-05T00:32:21.130Z,22.02
2023-09-05T00:34:53.810Z,21.99
2023-09-05T00:37:38.488Z,22.00
2023-09-05T00:40:12.367Z,21.93
2023-09-05T00:42:44.886Z,22.19
2023-09-05T00:45:18.464Z,21.96
2023-09-05T00:47:51.607Z,21.91
2023-09-05T00:50:25.117Z,21.95
2023-09-05T00:52:57.757Z,21.89
2023-09-05T00:55:30.629Z,21.83
2023-09-05T00:58:04.995Z,21.83
2023-09-05T01:00:37.759Z,21.93
2023-09-05T01:03:10.618Z,21.79
2023-09-05T01:05:54.707Z,21.81
2023-09-05T01:08:50.975Z,21.78
2023-09-05T01:11:25.594Z,21.85
2023-09-05T01:13:58.274Z,21.82
2023-09-05T01:16:31.835Z,21.73
2023-09-05T01:19:04.679Z,21.87
2023-09-05T01:21:45.711Z,21.87
2023-09-05T01:24:21.598Z,21.84
2023-09-05T01:26:56.027Z,21.79
2023-09-05T01:29:36.522Z,21.86
2023-09-05T01:32:10.603Z,21.85
2023-09-05T01:34:43.361Z,22.06
2023-09-05T01:37:16.752Z,21.75
2023-09-05T01:39:49.454Z,21.77
2023-09-05T01:42:22.172Z,21.73
2023-09-05T01:44:54.836Z,21.80
2023-09-05T01:47:27.594Z,21.68
2023-09-05T01:50:00.315Z,21.63
2023-09-05T01:52:33.006Z,21.77
2023-09-05T01:55:06.326Z,21.71
2023-09-05T01:57:38.977Z,21.70
2023-09-05T02:00:12.562Z,21.67
2023-09-05T02:02:45.233Z,21.70
2023-09-05T02:05:17.943Z,21.63
2023-09-05T02:07:50.674Z,21.75
2023-09-05T02:10:23.390Z,21.58
2023-09-05T02:12:56.107Z,21.73
2023-09-05T02:15:28.750Z,21.68
2023-09-05T02:18:01.889Z,21.58
2023-09-05T02:20:34.601Z,21.71
2023-09-05T02:23:08.367Z,21.59
2023-09-05T02:25:41.245Z,21.64
2023-09-05T02:28:14.925Z,21.58
2023-09-05T02:30:47.627Z,21.57
2023-09-05T02:33:20.476Z,21.63
2023-09-05T02:35:53.108Z,21.58
2023-09-05T02:38:25.858Z,21.62
2023-09-05T02:40:58.604Z,21.56
2023-09-05T02:43:31.355Z,21.53
2023-09-05T02:46:04.193Z,21.54
2023-09-05T02:48:41.181Z,21.57
2023-09-05T02:51:15.185Z,21.55
2023-09-05T02:53:48.554Z,21.87
2023-09-05T02:56:21.353Z,21.65
2023-09-05T02:58:54.106Z,21.55
2023-09-05T03:01:36.161Z,21.51
2023-09-05T03:04:08.939Z,21.50
2023-09-05T03:06:42.138Z,21.48
2023-09-05T03:09:14.804Z,21.50
2023-09-05T03:11:47.599Z,21.51
2023-09-05T03:14:20.315Z,21.56
2023-09-05T03:16:53.050Z,21.54
2023-09-05T03:19:25.697Z,21.56
2023-09-05T03:21:58.356Z,21.44
2023-09-05T03:24:31.311Z,21.48
2023-09-05T03:27:04.816Z,21.57
2023-09-05T03:29:37.468Z,21.51
2023-09-05T03:32:18.985Z,21.44
2023-09-05T03:34:52.660Z,21.56
2023-09-05T03:37:26.109Z,21.53
2023-09-05T03:39:58.991Z,21.49
2023-09-05T03:42:31.622Z,21.45
2023-09-05T03:45:04.637Z,21.48
2023-09-05T03:47:44.139Z,21.45
2023-09-05T03:50:23.253Z,21.44
2023-09-05T03:52:55.928Z,21.48
2023-09-05T03:55:40.937Z,21.56
2023-09-05T03:58:13.692Z,21.42
2023-09-05T04:00:46.369Z,21.43
2023-09-05T04:03:19.142Z,21.43
2023-09-05T04:05:51.958Z,21.51
2023-09-05T04:08:36.992Z,21.49
2023-09-05T04:11:09.651Z,21.45
2023-09-05T04:13:42.296Z,21.39
2023-09-05T04:16:15.038Z,21.50
2023-09-05T04:18:47.903Z,21.44
2023-09-05T04:21:20.556Z,21.37
2023-09-05T04:23:53.202Z,21.39
2023-09-05T04:26:26.261Z,21.43
2023-09-05T04:29:06.412Z,21.34
2023-09-05T04:31:39.037Z,21.34
2023-09-05T04:34:13.298Z,21.39
2023-09-05T04:36:46.133Z,21.46
2023-09-05T04:39:18.761Z,21.44
2023-09-05T04:41:51.392Z,21.36
2023-09-05T04:44:24.101Z,21.43
2023-09-05T04:47:23.263Z,21.51
2023-09-05T04:50:10.930Z,21.45
2023-09-05T04:52:43.552Z,21.38
2023-09-05T04:55:16.456Z,21.28
2023-09-05T04:57:49.265Z,21.27
2023-09-05T05:00:27.008Z,21.25
2023-09-05T05:03:09.209Z,21.31
2023-09-05T05:05:42.058Z,21.23
2023-09-05T05:08:17.548Z,21.28
2023-09-05T05:11:15.652Z,21.48
2023-09-05T05:13:48.345Z,21.23
2023-09-05T05:16:21.101Z,21.34
2023-09-05T05:18:53.704Z,21.35
2023-09-05T05:21:26.296Z,21.25
2023-09-05T05:23:58.999Z,21.31
2023-09-05T05:26:31.730Z,21.31
2023-09-05T05:29:16.684Z,21.24
2023-09-05T05:31:50.230Z,21.20
2023-09-05T05:34:22.936Z,21.28
2023-09-05T05:36:55.577Z,21.32
2023-09-05T05:39:28.668Z,21.14
2023-09-05T05:42:01.308Z,21.27
2023-09-05T05:44:34.244Z,21.20
2023-09-05T05:47:06.932Z,21.20
2023-09-05T05:49:42.393Z,21.26
2023-09-05T05:52:15.256Z,21.17
2023-09-05T05:54:47.921Z,21.28
2023-09-05T05:57:20.577Z,21.15
2023-09-05T05:59:53.755Z,21.30
2023-09-05T06:02:27.462Z,21.19
2023-09-05T06:05:00.270Z,21.18
2023-09-05T06:07:38.813Z,21.20
2023-09-05T06:10:12.665Z,21.26
2023-09-05T06:12:45.291Z,21.28
2023-09-05T06:15:17.915Z,21.16
2023-09-05T06:17:50.639Z,21.13
2023-09-05T06:20:24.387Z,21.15
2023-09-05T06:22:57.160Z,21.22
2023-09-05T06:25:29.920Z,21.14
2023-09-05T06:28:03.958Z,21.24
2023-09-05T06:30:36.444Z,21.48
2023-09-05T06:33:16.082Z,21.20
2023-09-05T06:35:57.932Z,21.20
2023-09-05T06:38:30.616Z,21.16
2023-09-05T06:41:12.556Z,21.26
2023-09-05T06:43:45.390Z,21.20
2023-09-05T06:46:19.200Z,21.24
2023-09-05T06:48:52.003Z,21.20
2023-09-05T06:51:33.837Z,21.28
2023-09-05T06:54:06.621Z,21.17
2023-09-05T06:56:39.314Z,21.17
2023-09-05T06:59:17.971Z,21.20
2023-09-05T07:01:50.815Z,21.16
2023-09-05T07:04:23.580Z,21.19
2023-09-05T07:06:56.225Z,21.12
2023-09-05T07:09:28.899Z,21.18
2023-09-05T07:12:02.370Z,21.23
2023-09-05T07:14:50.532Z,21.33
2023-09-05T07:17:29.292Z,21.24
2023-09-05T07:20:05.760Z,21.18
2023-09-05T07:22:38.489Z,21.18
2023-09-05T07:25:11.276Z,21.28
2023-09-05T07:27:44.067Z,21.23
2023-09-05T07:30:17.540Z,21.18
2023-09-05T07:32:50.403Z,21.23
2023-09-05T07:35:23.111Z,21.25
2023-09-05T07:37:55.850Z,21.36
2023-09-05T07:40:29.871Z,21.24
2023-09-05T07:43:02.565Z,21.60
2023-09-05T07:45:36.697Z,21.32
2023-09-05T07:48:10.044Z,21.29
2023-09-05T07:50:42.899Z,21.45
2023-09-05T07:53:15.533Z,21.37
2023-09-05T07:55:54.295Z,21.39
2023-09-05T07:58:42.492Z,21.43
2023-09-05T08:01:15.154Z,21.44
2023-09-05T08:03:50.759Z,21.37
2023-09-05T08:06:23.557Z,21.31
2023-09-05T08:08:56.368Z,21.39
2023-09-05T08:11:29.041Z,21.40
2023-09-05T08:14:01.702Z,21.39
2023-09-05T08:16:36.122Z,21.45
2023-09-05T08:19:08.759Z,21.40
2023-09-05T08:21:41.491Z,21.32
2023-09-05T08:24:16.217Z,21.41
2023-09-05T08:26:58.785Z,21.38
2023-09-05T08:29:47.224Z,21.36
2023-09-05T08:32:30.429Z,21.42
2023-09-05T08:35:17.519Z,21.53
2023-09-05T08:37:50.310Z,21.43
2023-09-05T08:40:25.063Z,21.36
2023-09-05T08:43:10.590Z,21.49
2023-09-05T08:45:55.087Z,21.46
2023-09-05T08:48:53.675Z,21.43
2023-09-05T08:51:55.128Z,21.38
2023-09-05T08:54:46.252Z,21.46
2023-09-05T08:57:37.312Z,21.52
2023-09-05T09:00:19.724Z,21.50
2023-09-05T09:03:08.105Z,21.59
2023-09-05T09:05:52.216Z,21.56
2023-09-05T09:08:25.150Z,21.51
2023-09-05T09:11:08.803Z,21.50
2023-09-05T09:13:41.528Z,21.54
2023-09-05T09:16:20.002Z,21.48
2023-09-05T09:19:05.056Z,21.51
2023-09-05T09:21:48.227Z,21.52
2023-09-05T09:24:21.748Z,21.52
2023-09-05T09:26:57.413Z,21.52
2023-09-05T09:29:31.206Z,21.61
2023-09-05T09:32:07.750Z,21.57
2023-09-05T09:34:51.688Z,21.69
2023-09-05T09:37:35.234Z,21.64
2023-09-05T09:40:17.838Z,21.66
2023-09-05T09:42:51.241Z,21.53
2023-09-05T09:45:26.578Z,21.61
2023-09-05T09:48:11.550Z,21.73
2023-09-05T09:50:46.389Z,21.60
2023-09-05T09:53:37.844Z,21.68
2023-09-05T09:56:27.308Z,21.67
2023-09-05T09:59:05.927Z,21.65
2023-09-05T10:01:41.016Z,21.59
2023-09-05T10:04:22.450Z,21.75
2023-09-05T10:06:58.484Z,21.67
2023-09-05T10:09:33.226Z,21.66
2023-09-05T10:12:11.982Z,21.71
2023-09-05T10:15:04.717Z,21.84
2023-09-05T10:17:43.810Z,21.78
2023-09-05T10:20:31.509Z,21.73
2023-09-05T10:23:16.663Z,21.75
2023-09-05T10:25:54.174Z,21.78
2023-09-05T10:31:15.716Z,21.79
2023-09-05T10:33:57.170Z,21.83
2023-09-05T10:36:47.850Z,21.91
2023-09-05T10:39:33.871Z,21.91
2023-09-05T10:42:17.680Z,22.05
2023-09-05T10:44:51.747Z,21.98
2023-09-05T10:47:37.120Z,22.09
2023-09-05T10:50:24.536Z,21.90
2023-09-05T10:53:11.626Z,22.12
2023-09-05T10:55:56.397Z,22.08
2023-09-05T10:58:55.552Z,22.17
2023-09-05T11:01:33.300Z,22.15
2023-09-05T11:04:09.636Z,22.13
2023-09-05T11:07:00.392Z,22.08
2023-09-05T11:09:50.615Z,22.19
2023-09-05T11:12:29.424Z,22.09
2023-09-05T11:15:03.076Z,22.18
2023-09-05T11:17:41.863Z,22.19
2023-09-05T11:23:14.026Z,22.30
2023-09-05T11:26:05.089Z,22.29
2023-09-05T11:28:52.736Z,22.41
2023-09-05T11:31:28.902Z,22.37
2023-09-05T11:34:21.374Z,22.35
2023-09-05T11:37:03.161Z,22.28
2023-09-05T11:42:36.611Z,22.42
2023-09-05T11:45:27.825Z,22.38
2023-09-05T11:48:22.837Z,22.41
2023-09-05T11:51:05.633Z,22.40
2023-09-05T11:53:38.536Z,22.42
2023-09-05T11:56:13.614Z,22.44
2023-09-05T11:58:58.408Z,22.52
2023-09-05T12:01:51.380Z,22.54
2023-09-05T12:04:43.356Z,22.67
2023-09-05T12:07:25.103Z,22.65
2023-09-05T12:10:11.082Z,22.75
2023-09-05T12:12:59.697Z,22.63
2023-09-05T12:15:37.177Z,22.70
2023-09-05T12:18:18.014Z,22.68
2023-09-05T12:21:02.888Z,22.71
2023-09-05T12:23:35.582Z,22.65
2023-09-05T12:26:08.509Z,22.74
2023-09-05T12:28:42.232Z,22.79
2023-09-05T12:31:29.820Z,22.93
2023-09-05T12:34:08.249Z,22.89
2023-09-05T12:36:51.534Z,22.95
2023-09-05T12:39:24.173Z,22.84
2023-09-05T12:41:57.932Z,22.89
2023-09-05T12:44:32.377Z,22.84
2023-09-05T12:47:06.401Z,22.97
2023-09-05T12:49:39.137Z,23.24
2023-09-05T12:52:28.495Z,22.95
2023-09-05T12:55:01.784Z,22.95
2023-09-05T12:57:34.526Z,23.01
2023-09-05T13:00:22.695Z,23.06
2023-09-05T13:02:55.489Z,23.09
2023-09-05T13:05:41.306Z,23.13
2023-09-05T13:08:14.307Z,23.22
2023-09-05T13:10:51.223Z,23.10
2023-09-05T13:13:23.885Z,23.13
2023-09-05T13:15:56.800Z,23.12
2023-09-05T13:18:29.652Z,23.17
2023-09-05T13:21:05.485Z,23.23
2023-09-05T13:23:38.235Z,23.22
2023-09-05T13:26:11.052Z,23.33
2023-09-05T13:28:43.833Z,23.36
2023-09-05T13:31:19.002Z,23.31
2023-09-05T13:33:51.736Z,23.32
2023-09-05T13:36:36.741Z,23.34
2023-09-05T13:39:10.405Z,23.36
2023-09-05T13:41:55.662Z,23.35
2023-09-05T13:44:29.318Z,23.32
2023-09-05T13:47:13.238Z,23.48
2023-09-05T13:49:45.970Z,23.39
2023-09-05T13:52:22.530Z,23.51
2023-09-05T13:55:07.613Z,23.48
2023-09-05T13:57:40.379Z,23.52
2023-09-05T14:00:13.796Z,23.47
2023-09-05T14:02:46.660Z,23.47
2023-09-05T14:05:22.802Z,23.44
2023-09-05T14:08:11.240Z,23.61
2023-09-05T14:10:48.406Z,23.52
2023-09-05T14:13:22.014Z,23.54
2023-09-05T14:16:01.153Z,23.59
2023-09-05T14:18:49.062Z,23.60
2023-09-05T14:21:39.672Z,23.65
2023-09-05T14:24:21.029Z,23.64
2023-09-05T14:26:58.092Z,23.65
2023-09-05T14:29:34.127Z,23.67
2023-09-05T14:32:19.212Z,23.67
2023-09-05T14:34:57.781Z,23.76
2023-09-05T14:37:41.061Z,23.75
2023-09-05T14:40:14.239Z,23.77
2023-09-05T14:42:47.105Z,23.69
2023-09-05T14:45:32.333Z,23.74
2023-09-05T14:48:06.048Z,23.76
2023-09-05T14:50:39.207Z,23.66
2023-09-05T14:55:59.972Z,23.69
2023-09-05T14:58:32.614Z,23.72
2023-09-05T15:01:05.362Z,23.74
2023-09-05T15:03:38.270Z,23.79
2023-09-05T15:06:11.793Z,23.72
2023-09-05T15:08:44.677Z,23.73
2023-09-05T15:11:24.722Z,23.82
2023-09-05T15:13:58.605Z,23.70
2023-09-05T15:16:31.388Z,24.07
2023-09-05T15:19:04.674Z,23.78
2023-09-05T15:21:40.084Z,23.88
2023-09-05T15:24:12.843Z,23.77
2023-09-05T15:26:45.536Z,23.85
2023-09-05T15:29:18.827Z,23.77
2023-09-05T15:31:51.766Z,23.85
2023-09-05T15:34:26.644Z,23.79
2023-09-05T15:37:02.289Z,23.78
2023-09-05T15:39:34.989Z,23.78
2023-09-05T15:42:09.530Z,23.78
2023-09-05T15:44:42.913Z,23.79
2023-09-05T15:47:15.507Z,23.87
2023-09-05T15:49:48.152Z,23.87
2023-09-05T15:52:23.845Z,23.73
2023-09-05T15:54:56.896Z,23.76
2023-09-05T15:57:29.542Z,23.83
2023-09-05T16:00:02.379Z,23.84
2023-09-05T16:02:35.159Z,23.77
2023-09-05T16:05:07.897Z,23.85
2023-09-05T16:07:40.625Z,23.77
2023-09-05T16:10:13.945Z,23.78
2023-09-05T16:12:46.927Z,23.76
2023-09-05T16:15:19.763Z,23.78
2023-09-05T16:17:52.488Z,23.83
2023-09-05T16:20:25.367Z,23.81
2023-09-05T16:22:58.341Z,23.88
2023-09-05T16:25:30.935Z,23.79
2023-09-05T16:28:04.173Z,23.78
2023-09-05T16:30:36.812Z,23.85
2023-09-05T16:33:09.588Z,23.74
2023-09-05T16:35:42.294Z,23.89
2023-09-05T16:38:14.902Z,23.78
2023-09-05T16:40:48.626Z,23.80
2023-09-05T16:43:22.133Z,23.80
2023-09-05T16:45:55.940Z,23.83
2023-09-05T16:48:32.651Z,24.10
2023-09-05T16:51:15.595Z,23.88
2023-09-05T16:53:48.364Z,23.87
2023-09-05T16:56:21.983Z,23.83
2023-09-05T16:58:56.455Z,23.78
2023-09-05T17:01:31.309Z,23.85
2023-09-05T17:04:04.609Z,23.87
2023-09-05T17:06:38.141Z,23.79
2023-09-05T17:09:10.923Z,23.75
2023-09-05T17:11:43.557Z,23.75
2023-09-05T17:14:16.845Z,23.71
2023-09-05T17:16:50.581Z,23.79
2023-09-05T17:19:23.276Z,23.77
2023-09-05T17:22:00.345Z,23.77
2023-09-05T17:24:33.933Z,23.74
2023-09-05T17:27:15.155Z,23.79
2023-09-05T17:29:48.822Z,23.76
2023-09-05T17:35:13.263Z,23.80
2023-09-05T17:37:45.942Z,23.81
2023-09-05T17:40:19.234Z,23.74
2023-09-05T17:42:51.873Z,23.83
2023-09-05T17:45:25.411Z,23.83
2023-09-05T17:47:58.164Z,23.83
2023-09-05T17:50:31.128Z,23.84
2023-09-05T17:53:06.020Z,23.83
2023-09-05T17:55:46.402Z,23.73
2023-09-05T17:58:27.796Z,23.80
2023-09-05T18:01:13.670Z,23.78
2023-09-05T18:03:46.602Z,23.71
2023-09-05T18:06:19.330Z,23.72
2023-09-05T18:09:07.359Z,23.79
2023-09-05T18:11:40.194Z,23.74
2023-09-05T18:14:18.715Z,23.70
2023-09-05T18:16:51.529Z,23.70
2023-09-05T18:19:25.385Z,23.71
2023-09-05T18:21:57.977Z,24.02
2023-09-05T18:24:33.475Z,23.70
2023-09-05T18:27:07.519Z,23.77
2023-09-05T18:29:40.269Z,23.70
2023-09-05T18:32:17.543Z,23.67
2023-09-05T18:34:50.294Z,23.70
2023-09-05T18:37:25.625Z,23.74
2023-09-05T18:40:01.880Z,23.75
2023-09-05T18:42:34.581Z,23.72
2023-09-05T18:45:08.245Z,23.69
2023-09-05T18:47:41.612Z,23.68
2023-09-05T18:50:15.320Z,23.75
2023-09-05T18:52:51.398Z,23.73
2023-09-05T18:55:24.143Z,23.75
2023-09-05T18:57:56.889Z,23.64
2023-09-05T19:00:29.892Z,23.67
2023-09-05T19:03:02.773Z,23.68
2023-09-05T19:05:36.576Z,23.72
2023-09-05T19:08:09.385Z,23.73
2023-09-05T19:10:46.290Z,23.72
2023-09-05T19:13:20.102Z,23.64
2023-09-05T19:15:54.351Z,23.63
2023-09-05T19:18:27.502Z,23.72
2023-09-05T19:21:03.076Z,23.65
2023-09-05T19:23:44.018Z,23.71
2023-09-05T19:26:16.660Z,23.69
2023-09-05T19:28:50.642Z,23.62
2023-09-05T19:31:23.535Z,23.57
2023-09-05T19:34:06.594Z,23.59
2023-09-05T19:36:39.341Z,23.57
2023-09-05T19:39:12.142Z,23.62
2023-09-05T19:41:45.086Z,23.61
2023-09-05T19:44:17.996Z,23.68
2023-09-05T19:46:50.816Z,23.53
2023-09-05T19:49:24.497Z,23.52
2023-09-05T19:52:20.690Z,23.57
2023-09-05T19:55:06.339Z,23.59
2023-09-05T19:57:42.657Z,23.50
2023-09-05T20:00:15.635Z,23.65
2023-09-05T20:02:50.972Z,23.61
2023-09-05T20:05:24.022Z,23.52
2023-09-05T20:07:56.688Z,23.52
2023-09-05T20:10:29.545Z,23.49
2023-09-05T20:13:02.874Z,23.46
2023-09-05T20:15:36.190Z,23.58
2023-09-05T20:18:08.904Z,23.56
2023-09-05T20:20:50.154Z,23.58
2023-09-05T20:23:25.257Z,23.49
2023-09-05T20:25:58.017Z,23.45
2023-09-05T20:28:32.429Z,23.54
2023-09-05T20:31:06.286Z,23.48
2023-09-05T20:33:39.025Z,23.83
2023-09-05T20:36:22.011Z,23.61
2023-09-05T20:38:54.705Z,23.61
2023-09-05T20:41:27.402Z,23.58
2023-09-05T20:44:00.176Z,23.52
2023-09-05T20:46:32.884Z,23.54
2023-09-05T20:49:05.826Z,23.49
2023-09-05T20:51:40.095Z,23.56
2023-09-05T20:54:13.753Z,23.49
2023-09-05T20:56:46.477Z,23.58
2023-09-05T20:59:20.168Z,23.52
2023-09-05T21:01:53.247Z,23.55
2023-09-05T21:04:26.888Z,23.54
2023-09-05T21:06:59.799Z,23.77
2023-09-05T21:09:32.557Z,23.51
2023-09-05T21:12:06.453Z,23.51
2023-09-05T21:14:39.098Z,23.47
2023-09-05T21:17:11.766Z,23.50
2023-09-05T21:19:44.411Z,23.49
2023-09-05T21:25:12.398Z,23.44
2023-09-05T21:27:45.083Z,23.48
2023-09-05T21:30:18.741Z,23.42
2023-09-05T21:32:51.583Z,23.37
2023-09-05T21:35:24.273Z,23.52
2023-09-05T21:37:58.120Z,23.46
2023-09-05T21:40:30.906Z,23.73
2023-09-05T21:43:03.737Z,23.41
2023-09-05T21:45:42.501Z,23.39
2023-09-05T21:48:15.305Z,23.40
2023-09-05T21:50:48.169Z,23.48
2023-09-05T21:53:20.777Z,23.35
2023-09-05T21:55:53.425Z,23.38
2023-09-05T21:58:26.605Z,23.39
2023-09-05T22:00:59.606Z,23.45
2023-09-05T22:03:34.545Z,23.41
2023-09-05T22:06:07.225Z,23.41
2023-09-05T22:08:41.778Z,23.33
2023-09-05T22:11:17.685Z,23.31
2023-09-05T22:13:51.569Z,23.39
2023-09-05T22:16:24.434Z,23.65
2023-09-05T22:19:17.668Z,23.44
2023-09-05T22:21:51.121Z,23.41
2023-09-05T22:27:22.256Z,23.32
2023-09-05T22:29:55.192Z,23.25
2023-09-05T22:32:43.593Z,23.40
2023-09-05T22:35:16.520Z,23.37
2023-09-05T22:37:49.213Z,23.40
2023-09-05T22:40:21.910Z,23.25
2023-09-05T22:42:56.800Z,23.33
2023-09-05T22:45:29.675Z,23.36
2023-09-05T22:48:02.572Z,23.25
2023-09-05T22:50:38.619Z,23.31
2023-09-05T22:53:11.497Z,23.37
2023-09-05T22:55:48.676Z,23.22
2023-09-05T22:58:22.350Z,23.24
2023-09-05T23:00:58.977Z,23.34
2023-09-05T23:03:40.894Z,23.22
2023-09-05T23:06:19.927Z,23.29
2023-09-05T23:09:01.599Z,23.24
2023-09-05T23:11:34.407Z,23.19
2023-09-05T23:14:10.246Z,23.26
2023-09-05T23:17:09.924Z,23.40
2023-09-05T23:19:42.765Z,23.21
2023-09-05T23:22:15.409Z,23.19
2023-09-05T23:24:48.554Z,23.28
2023-09-05T23:27:22.641Z,23.18
2023-09-05T23:29:55.426Z,23.14
2023-09-05T23:32:28.176Z,23.17
2023-09-05T23:35:17.344Z,23.33
2023-09-05T23:37:50.097Z,23.15
2023-09-05T23:40:22.976Z,23.13
2023-09-05T23:42:55.731Z,23.15
2023-09-05T23:45:40.200Z,23.28
2023-09-05T23:48:12.941Z,23.17
2023-09-05T23:50:46.292Z,23.07
2023-09-05T23:53:19.032Z,23.16
2023-09-05T23:55:52.202Z,23.07
2023-09-05T23:58:24.940Z,23.18
